createdAt,value
2018-10-11T00:03:43.176Z,14.57
2018-10-11T00:08:46.571Z,14.77
2018-10-11T00:13:49.963Z,14.10
2018-10-11T00:18:53.396Z,14.33
2018-10-11T00:23:56.806Z,14.33
2018-10-11T00:29:00.194Z,14.17
2018-10-11T00:34:03.595Z,14.27
2018-10-11T00:39:08.114Z,13.80
2018-10-11T00:44:15.017Z,13.43
2018-10-11T00:49:18.464Z,13.50
2018-10-11T00:54:21.958Z,14.07
2018-10-11T00:59:25.387Z,14.90
2018-10-11T01:04:28.817Z,13.97
2018-10-11T01:09:32.263Z,13.73
2018-10-11T01:14:36.379Z,12.93
2018-10-11T01:19:39.758Z,12.77
2018-10-11T01:24:43.165Z,13.53
2018-10-11T01:29:46.929Z,14.07
2018-10-11T01:34:50.243Z,14.33
2018-10-11T01:39:53.626Z,13.60
2018-10-11T01:44:56.979Z,12.63
2018-10-11T01:50:00.379Z,12.77
2018-10-11T01:55:03.850Z,12.57
2018-10-11T02:00:07.212Z,12.80
2018-10-11T02:05:10.954Z,12.83
2018-10-11T02:10:14.356Z,12.57
2018-10-11T02:15:17.935Z,13.47
2018-10-11T02:20:21.323Z,13.03
2018-10-11T02:25:24.710Z,12.77
2018-10-11T02:30:28.126Z,12.53
2018-10-11T02:35:31.720Z,13.07
2018-10-11T02:40:35.196Z,13.20
2018-10-11T02:45:38.689Z,12.80
2018-10-11T02:50:42.655Z,13.07
2018-10-11T02:55:46.070Z,13.77
2018-10-11T03:00:49.940Z,12.97
2018-10-11T03:05:53.335Z,13.83
2018-10-11T03:10:57.171Z,13.07
2018-10-11T03:16:00.576Z,13.40
2018-10-11T03:21:03.932Z,13.97
2018-10-11T03:26:08.164Z,14.50
2018-10-11T03:31:11.602Z,14.10
2018-10-11T03:36:14.963Z,13.77
2018-10-11T03:41:18.442Z,13.93
2018-10-11T03:46:21.866Z,14.20
2018-10-11T03:51:25.242Z,15.40
2018-10-11T03:56:28.682Z,14.70
2018-10-11T04:01:32.071Z,16.20
2018-10-11T04:06:35.509Z,15.00
2018-10-11T04:11:38.890Z,14.85
2018-10-11T04:16:42.286Z,16.33
2018-10-11T04:21:45.675Z,16.13
2018-10-11T04:26:49.062Z,15.87
2018-10-11T04:31:53.201Z,16.10
2018-10-11T04:36:56.580Z,16.00
2018-10-11T04:41:59.982Z,15.63
2018-10-11T04:47:04.380Z,15.93
2018-10-11T04:52:07.829Z,16.20
2018-10-11T04:57:11.337Z,15.67
2018-10-11T05:02:14.736Z,16.03
2018-10-11T05:07:18.119Z,15.57
2018-10-11T05:12:21.478Z,15.43
2018-10-11T05:17:24.918Z,16.70
2018-10-11T05:22:28.277Z,15.67
2018-10-11T05:27:31.694Z,15.70
2018-10-11T05:32:35.346Z,15.63
2018-10-11T05:37:38.738Z,17.27
2018-10-11T05:42:42.363Z,16.45
2018-10-11T05:47:46.269Z,16.17
2018-10-11T05:52:49.684Z,16.03
2018-10-11T05:57:53.455Z,16.37
2018-10-11T06:03:01.145Z,16.80
2018-10-11T06:08:04.645Z,16.43
2018-10-11T06:13:08.930Z,15.37
2018-10-11T06:18:12.991Z,16.33
2018-10-11T06:23:16.776Z,16.43
2018-10-11T06:28:20.381Z,16.87
2018-10-11T06:33:23.809Z,15.73
2018-10-11T06:38:28.709Z,14.93
2018-10-11T06:43:34.000Z,15.30
2018-10-11T06:48:37.603Z,15.73
2018-10-11T06:53:41.222Z,15.43
2018-10-11T06:58:44.636Z,15.40
2018-10-11T07:03:48.038Z,14.90
2018-10-11T07:08:51.483Z,14.73
2018-10-11T07:13:54.955Z,14.73
2018-10-11T07:18:58.388Z,14.33
2018-10-11T07:24:01.834Z,14.20
2018-10-11T07:29:05.263Z,14.97
2018-10-11T07:34:08.838Z,14.33
2018-10-11T07:39:13.407Z,14.40
2018-10-11T07:44:16.785Z,14.57
2018-10-11T07:49:20.199Z,14.63
2018-10-11T07:54:27.735Z,14.10
2018-10-11T07:59:31.124Z,14.77
2018-10-11T08:04:34.509Z,14.33
2018-10-11T08:09:37.951Z,14.00
2018-10-11T08:14:41.368Z,12.87
2018-10-11T08:19:44.856Z,14.53
2018-10-11T08:24:48.302Z,14.03
2018-10-11T08:29:52.028Z,13.03
2018-10-11T08:34:55.432Z,14.23
2018-10-11T08:39:58.844Z,13.73
2018-10-11T08:45:02.232Z,14.00
2018-10-11T08:50:05.625Z,12.93
2018-10-11T08:55:09.135Z,13.97
2018-10-11T09:00:12.615Z,13.27
2018-10-11T09:05:16.040Z,13.33
2018-10-11T09:10:19.475Z,12.97
2018-10-11T09:15:22.990Z,13.00
2018-10-11T09:20:26.370Z,12.70
2018-10-11T09:25:29.782Z,13.00
2018-10-11T09:30:33.143Z,12.50
2018-10-11T09:35:36.610Z,13.90
2018-10-11T09:40:39.993Z,12.90
2018-10-11T09:45:43.375Z,12.30
2018-10-11T09:50:46.730Z,11.90
2018-10-11T09:55:50.109Z,12.60
2018-10-11T10:00:59.006Z,12.23
2018-10-11T10:06:02.391Z,11.50
2018-10-11T10:11:05.834Z,12.07
2018-10-11T10:16:09.249Z,12.33
2018-10-11T10:21:12.738Z,12.07
2018-10-11T10:26:16.110Z,12.13
2018-10-11T10:31:19.587Z,11.63
2018-10-11T10:36:23.564Z,11.63
2018-10-11T10:41:26.991Z,11.87
2018-10-11T10:46:30.357Z,11.17
2018-10-11T10:51:33.822Z,10.70
2018-10-11T10:56:37.379Z,11.03
2018-10-11T11:01:40.746Z,11.43
2018-10-11T11:06:44.195Z,10.53
2018-10-11T11:11:47.586Z,11.40
2018-10-11T11:16:50.961Z,11.33
2018-10-11T11:21:54.332Z,11.10
2018-10-11T11:26:57.737Z,11.00
2018-10-11T11:32:01.729Z,10.53
2018-10-11T11:37:05.144Z,10.35
2018-10-11T11:42:08.526Z,9.80
2018-10-11T11:47:11.941Z,10.37
2018-10-11T11:52:15.429Z,10.43
2018-10-11T11:57:19.074Z,10.23
2018-10-11T12:02:22.439Z,10.70
2018-10-11T12:07:25.805Z,11.23
2018-10-11T12:13:00.882Z,10.72
2018-10-11T12:18:05.184Z,10.82
2018-10-11T12:23:09.604Z,10.98
2018-10-11T12:28:13.032Z,11.75
2018-10-11T12:33:16.656Z,11.83
2018-10-11T12:38:20.806Z,11.30
2018-10-11T12:43:24.199Z,11.50
2018-10-11T12:48:27.642Z,11.95
2018-10-11T12:53:30.995Z,11.08
2018-10-11T12:58:34.355Z,11.40
2018-10-11T13:03:37.807Z,11.50
2018-10-11T13:08:41.198Z,11.03
2018-10-11T13:13:47.862Z,11.25
2018-10-11T13:18:48.034Z,11.25
2018-10-11T13:23:51.412Z,10.93
2018-10-11T13:28:55.262Z,11.08
2018-10-11T13:33:59.349Z,11.28
2018-10-11T13:39:03.350Z,10.53
2018-10-11T13:44:06.719Z,11.43
2018-10-11T13:49:10.148Z,10.83
2018-10-11T13:54:18.500Z,10.70
2018-10-11T13:59:21.903Z,10.75
2018-10-11T14:04:25.400Z,10.28
2018-10-11T14:09:29.467Z,9.75
2018-10-11T14:14:32.808Z,10.08
2018-10-11T14:19:36.183Z,9.48
2018-10-11T14:24:39.578Z,10.03
2018-10-11T14:29:43.026Z,10.50
2018-10-11T14:34:47.093Z,9.83
2018-10-11T14:39:50.454Z,9.90
2018-10-11T14:44:53.863Z,9.28
2018-10-11T14:49:57.264Z,10.53
2018-10-11T14:55:00.663Z,9.87
2018-10-11T15:00:04.092Z,9.65
2018-10-11T15:05:07.480Z,9.63
2018-10-11T15:10:12.682Z,9.48
2018-10-11T15:15:16.122Z,10.48
2018-10-11T15:20:19.569Z,9.93
2018-10-11T15:25:23.031Z,9.50
2018-10-11T15:30:26.686Z,9.55
2018-10-11T15:35:30.078Z,10.20
2018-10-11T15:40:33.613Z,10.03
2018-10-11T15:45:37.120Z,10.90
2018-10-11T15:50:40.482Z,10.72
2018-10-11T15:55:43.921Z,10.88
2018-10-11T16:00:47.441Z,10.78
2018-10-11T16:05:50.911Z,11.20
2018-10-11T16:10:54.404Z,10.98
2018-10-11T16:15:57.845Z,11.15
2018-10-11T16:21:01.361Z,11.83
2018-10-11T16:26:04.712Z,11.40
2018-10-11T16:31:08.106Z,10.98
2018-10-11T16:36:11.521Z,11.03
2018-10-11T16:41:14.914Z,10.80
2018-10-11T16:46:18.298Z,10.67
2018-10-11T16:51:21.685Z,10.73
2018-10-11T16:56:25.155Z,20.70
2018-10-11T17:01:28.552Z,52.83
2018-10-11T17:06:32.040Z,25.37
2018-10-11T17:11:35.397Z,12.10
2018-10-11T17:16:38.762Z,11.10
2018-10-11T17:21:42.251Z,10.43
2018-10-11T17:26:45.646Z,10.40
2018-10-11T17:31:49.028Z,10.60
2018-10-11T17:36:52.472Z,10.77
2018-10-11T17:41:55.878Z,10.97
2018-10-11T17:46:59.249Z,10.37
2018-10-11T17:52:02.637Z,10.60
2018-10-11T17:57:05.991Z,11.20
2018-10-11T18:02:09.358Z,11.10
2018-10-11T18:07:12.955Z,11.12
2018-10-11T18:12:16.310Z,11.70
2018-10-11T18:17:19.785Z,11.27
2018-10-11T18:22:23.204Z,11.40
2018-10-11T18:27:26.634Z,11.90
2018-10-11T18:32:30.096Z,12.13
2018-10-11T18:37:33.483Z,11.57
2018-10-11T18:42:36.830Z,11.60
2018-10-11T18:47:40.224Z,11.60
2018-10-11T18:52:43.647Z,11.57
2018-10-11T18:57:47.108Z,11.80
2018-10-11T19:02:50.478Z,12.23
2018-10-11T19:07:53.851Z,12.47
2018-10-11T19:12:57.407Z,12.07
2018-10-11T19:18:00.778Z,12.60
2018-10-11T19:23:04.220Z,13.23
2018-10-11T19:28:07.583Z,13.17
2018-10-11T19:33:10.918Z,13.30
2018-10-11T19:38:15.302Z,13.90
2018-10-11T19:43:18.829Z,13.00
2018-10-11T19:48:22.129Z,13.47
2018-10-11T19:53:25.543Z,13.33
2018-10-11T19:58:28.941Z,13.30
2018-10-11T20:03:32.301Z,13.57
2018-10-11T20:08:36.211Z,13.53
2018-10-11T20:13:39.515Z,13.60
2018-10-11T20:18:42.922Z,13.73
2018-10-11T20:23:46.355Z,13.57
2018-10-11T20:28:49.727Z,14.13
2018-10-11T20:33:53.098Z,14.03
2018-10-11T20:38:56.512Z,13.83
2018-10-11T20:43:59.869Z,14.17
2018-10-11T20:49:03.259Z,12.90
2018-10-11T20:54:06.646Z,12.93
2018-10-11T20:59:10.015Z,12.80
2018-10-11T21:04:13.352Z,13.13
2018-10-11T21:09:16.690Z,13.60
2018-10-11T21:14:20.030Z,13.40
2018-10-11T21:19:23.958Z,13.27
2018-10-11T21:24:27.611Z,12.87
2018-10-11T21:29:31.004Z,12.73
2018-10-11T21:34:34.474Z,12.93
2018-10-11T21:39:37.844Z,13.50
2018-10-11T21:44:41.182Z,13.53
2018-10-11T21:57:20.321Z,12.47
2018-10-11T22:02:23.902Z,13.53
2018-10-11T22:07:27.297Z,13.30
2018-10-11T22:12:30.782Z,12.70
2018-10-11T22:17:34.707Z,12.40
2018-10-11T22:22:38.133Z,11.77
2018-10-11T22:27:41.809Z,12.70
2018-10-11T22:32:45.190Z,12.93
2018-10-11T22:37:49.798Z,12.97
2018-10-11T22:42:53.218Z,12.23
2018-10-11T22:47:57.099Z,12.63
2018-10-11T22:53:00.468Z,13.00
2018-10-11T22:58:04.150Z,12.53
2018-10-11T23:03:07.546Z,13.33
2018-10-11T23:08:10.941Z,12.77
2018-10-11T23:13:14.351Z,13.50
2018-10-11T23:18:17.868Z,12.57
2018-10-11T23:23:21.313Z,12.90
2018-10-11T23:28:24.698Z,12.60
2018-10-11T23:33:28.206Z,12.53
2018-10-11T23:38:31.647Z,12.87
2018-10-11T23:43:35.022Z,12.43
2018-10-11T23:48:38.680Z,12.90
2018-10-11T23:53:42.050Z,12.80
2018-10-11T23:58:45.419Z,12.00
